Ron Brown — WTEC — position and weather

sailwx.info

Track history (hours):
 
Tides and Currents Weather Stations Pressure Air Temp Water Temp Dewpoint Dewpoint Depression Visibility Wind Speed Wind Dir Waves Ship Positions

Oceanographic research ship Ron Brown (USA)

Detailed information on ship capabilities available from University of Delaware's Ocean Information Center.

Owner: UNIVERSITY OF SOUTHERN CALIFORNIA, TERMINAL ISLAND, CA. More information available from US FCC via Universal Licensing System and Coast Guard Vessel Documentation Center.

Last reported at 2017-Apr-30 19:59 UTC. Time now 2017-Apr-30 20:38 UTC.
Position N 19°12' W 074°42'.

Type: Other ship. MMSI: 368996000.

Wind from 050 at 11 knots

Barometer 1013.7 mb
Air temperature 28.0 ° C
Water temperature 28.1 ° C

Date/timePositionNaut miles runAvg speedWind from/ knotsBaromVisibWave heightAir tempDewpointWater temp
2017-Apr-30 19:59N 19°12' W 074°42'8 8.4 050 / 111013.7 28.0 28.1
2017-Apr-30 19:00N 19°18' W 074°36'1311.4 040 / 111014.4 27.7 28.2
2017-Apr-30 17:50N 19°30' W 074°30'8 8.4 040 / 111014.9 27.4 28.1
2017-Apr-30 16:51N 19°36' W 074°24'1312.8 050 / 121015.5 26.9 28.0
2017-Apr-30 15:51N 19°42' W 074°12'1313.5 060 / 151016.3 26.3 27.0
2017-Apr-30 14:52N 19°54' W 074°06'1313.5 060 / 151016.6 26.3 25.9
2017-Apr-30 13:53N 20°06' W 074°00'1212.2 070 / 171016.0 26.1 25.9
2017-Apr-30 12:54N 20°18' W 074°00'8 9.1 060 / 151015.4 26.2 25.9
2017-Apr-30 12:00N 20°24' W 074°06'0 0.0 070 / 191014.610.8 26.122.825.9
2017-Apr-30 11:54N 20°24' W 074°06'1313.0 070 / 201014.7 26.1 25.9
2017-Apr-30 10:55N 20°30' W 074°18'1313.0 060 / 221014.4 25.9 25.9
2017-Apr-30 09:56N 20°36' W 074°30'8 8.4 080 / 211013.6 25.8 25.8
2017-Apr-30 08:57N 20°42' W 074°36'1312.9 080 / 211013.4 25.5 25.9
2017-Apr-30 07:58N 20°48' W 074°48'1111.2 080 / 231013.3 25.7 26.0
2017-Apr-30 06:58N 20°48' W 075°00'8 8.5 080 / 221013.1 25.7 26.0
2017-Apr-30 06:00N 20°54' W 075°06'0 0.0 090 / 251013.5 5.4 25.122.626.0
2017-Apr-30 05:59N 20°54' W 075°06'1312.9 080 / 241013.5 25.9 26.1
2017-Apr-30 05:00N 21°00' W 075°18'1310.9 080 / 241014.0 26.0 26.0
2017-Apr-30 03:50N 21°06' W 075°30'8 8.3 070 / 241014.3 26.0 26.0
2017-Apr-30 02:51N 21°12' W 075°36'1111.4 070 / 241014.1 26.0 25.9
2017-Apr-30 01:52N 21°12' W 075°48'1312.9 070 / 241013.8 25.9 25.9
2017-Apr-30 00:53N 21°18' W 076°00'8 9.3 070 / 251013.7 25.9 26.1
2017-Apr-30 00:00N 21°24' W 076°06'1816.2 070 / 241013.7 5.4 25.925.326.1
2017-Apr-29 22:54N 21°30' W 076°24'6 5.7 060 / 271013.4 26.0 26.1
2017-Apr-29 21:55N 21°30' W 076°30'1312.9 070 / 251013.5 26.1 26.3
2017-Apr-29 20:56N 21°36' W 076°42'1312.9 070 / 251013.9 26.1 26.2
2017-Apr-29 19:57N 21°42' W 076°54'8 8.2 070 / 231014.4 26.1 26.3
2017-Apr-29 18:57N 21°48' W 077°00'1313.3 070 / 271014.9 26.1 26.3
2017-Apr-29 18:00N 21°54' W 077°12'0 0.0 080 / 241015.4 5.4 26.123.226.3
2017-Apr-29 17:58N 21°54' W 077°12'8 8.3 080 / 231015.4 26.2 26.3
2017-Apr-29 16:59N 22°00' W 077°18'1312.9 080 / 211016.4 26.0 26.3
2017-Apr-29 16:00N 22°06' W 077°30'1614.0 080 / 251016.9 25.8 26.1
2017-Apr-29 14:50N 22°18' W 077°42'1312.8 090 / 211017.9 26.2 26.2
2017-Apr-29 13:51N 22°24' W 077°54'8 8.3 100 / 191018.6 26.6 26.3
2017-Apr-29 12:52N 22°30' W 078°00'1314.5 070 / 201017.9 26.4 26.5
2017-Apr-29 12:00N 22°36' W 078°12'0 0.0 070 / 131016.8 5.4 26.322.726.5
2017-Apr-29 11:52N 22°36' W 078°12'1312.8 080 / 221016.8 26.3 26.5
2017-Apr-29 10:53N 22°42' W 078°24'1111.3 080 / 181016.5 26.1 26.5
2017-Apr-29 09:54N 22°42' W 078°36'1312.8 080 / 231015.8 26.1 26.4
2017-Apr-29 08:55N 22°48' W 078°48'1313.2 080 / 271015.2 26.2 26.8
2017-Apr-29 07:55N 23°00' W 078°54'1313.4 090 / 281015.3 26.4 27.0
2017-Apr-29 06:56N 23°12' W 079°00'8 8.7 090 / 291015.1 26.5 27.1
2017-Apr-29 06:00N 23°18' W 079°06'0 0.0 110 / 241015.7 5.4 25.823.327.0
2017-Apr-29 05:57N 23°18' W 079°06'1313.4 090 / 271015.7 26.7 27.1
2017-Apr-29 04:58N 23°30' W 079°12'8 8.3 100 / 261016.4 26.9 27.1
2017-Apr-29 03:59N 23°36' W 079°18'1212.2 090 / 261017.1 27.0 27.1
2017-Apr-29 03:00N 23°48' W 079°18'1210.3 090 / 291016.4 26.9 27.1
2017-Apr-29 01:50N 24°00' W 079°18'1212.2 090 / 281016.3 27.0 27.2
2017-Apr-29 00:51N 24°12' W 079°18'19 9.5 090 / 241016.1 27.2 27.2
2017-Apr-28 22:52N 24°30' W 079°24'1212.2 110 / 171016.1 27.0 27.1
2017-Apr-28 21:53N 24°42' W 079°24'1212.2 100 / 161015.8 27.1 27.4
2017-Apr-28 20:54N 24°54' W 079°24'6 6.1 110 / 141016.5 27.1 27.2
2017-Apr-28 19:55N 25°00' W 079°24'1212.2 110 / 131016.9 27.1 27.2
2017-Apr-28 18:56N 25°12' W 079°24'8 8.1 070 / 141016.9 26.5 27.1
2017-Apr-28 17:56N 25°18' W 079°30'6 6.1 080 / 171017.8 26.3 27.0
2017-Apr-28 16:57N 25°24' W 079°30'1212.2 090 / 161018.6 26.2 26.9
2017-Apr-28 15:58N 25°36' W 079°30'1212.2 100 / 191018.7 26.2 27.0
2017-Apr-28 14:59N 25°48' W 079°30'6 6.1 110 / 171019.4 26.0 26.2
2017-Apr-28 14:00N 25°54' W 079°30'1211.4 110 / 171019.0 26.0 26.4
2017-Apr-28 12:57N 26°06' W 079°30'1212.6 130 / 121017.9 26.0 26.7
2017-Apr-28 12:00N 26°18' W 079°30'0 0.0 170 / 131017.110.8 26.022.226.9
2017-Apr-28 11:58N 26°18' W 079°30'1212.2 150 / 111017.2 26.0 26.9
2017-Apr-28 10:59N 26°30' W 079°30'6 6.0 160 / 141015.4 25.8 27.0
2017-Apr-28 09:59N 26°36' W 079°30'1212.2 150 / 121014.4 25.7 27.0
2017-Apr-28 09:00N 26°48' W 079°30'8 7.0 150 / 191014.2 25.6 27.0
2017-Apr-28 07:51N 26°54' W 079°36'1313.4 160 / 171014.3 25.8 27.1
2017-Apr-28 06:52N 27°06' W 079°42'6 6.9 160 / 211014.3 25.7 27.1
2017-Apr-28 06:00N 27°12' W 079°42'0 0.0 150 / 181014.0 5.4 26.925.326.9
2017-Apr-28 05:52N 27°12' W 079°42'8 8.2 150 / 191014.1 26.1 27.0
2017-Apr-28 04:53N 27°18' W 079°48'8 8.2 160 / 191014.3 26.0 27.0
2017-Apr-28 03:54N 27°24' W 079°54'1212.2 150 / 181014.3 26.3 27.0
2017-Apr-28 02:55N 27°36' W 079°54'8 8.2 170 / 181014.4 26.6 26.8
2017-Apr-28 01:56N 27°42' W 080°00'1212.0 170 / 181013.6 26.4 25.8
2017-Apr-28 00:56N 27°54' W 080°00'6 6.4 160 / 151013.1 26.3 25.7
2017-Apr-28 00:00N 28°00' W 080°00'1211.6 160 / 131013.0 5.4 26.124.325.8
2017-Apr-27 22:58N 28°12' W 080°00'6 6.1 160 / 181012.8 26.1 25.3
2017-Apr-27 21:59N 28°18' W 080°00'1212.2 160 / 161012.8 26.1 26.1
2017-Apr-27 21:00N 28°30' W 080°00'24 8.0 170 / 171012.9 26.1 26.7
2017-Apr-27 18:00N 28°54' W 080°00'8311.3 170 / 111014.910.8 25.522.025.8
2017-Apr-27 10:36N 30°16' W 080°15'111.3
2017-Apr-27 10:30N 30°18' W 080°14'11310.8
2017-Apr-27 00:00N 32°06' W 079°36'   180 / 181009.410.8 22.516.9
Track history (hours):
 
Tides and Currents Weather Stations Pressure Air Temp Water Temp Dewpoint Dewpoint Depression Visibility Wind Speed Wind Dir Waves Ship Positions

Oceanographic research ship Ron Brown (USA)

Detailed information on ship capabilities available from University of Delaware's Ocean Information Center.

Owner: UNIVERSITY OF SOUTHERN CALIFORNIA, TERMINAL ISLAND, CA. More information available from US FCC via Universal Licensing System and Coast Guard Vessel Documentation Center.

Last reported at 2017-Apr-30 19:59 UTC. Time now 2017-Apr-30 20:38 UTC.
Position N 19°12' W 074°42'.

Type: Other ship. MMSI: 368996000.

Wind from 050 at 11 knots

Barometer 1013.7 mb
Air temperature 28.0 ° C
Water temperature 28.1 ° C

Date/timePositionNaut miles runAvg speedWind from/ knotsBaromVisibWave heightAir tempDewpointWater temp
2017-Apr-30 19:59N 19°12' W 074°42'8 8.4 050 / 111013.7 28.0 28.1
2017-Apr-30 19:00N 19°18' W 074°36'1311.4 040 / 111014.4 27.7 28.2
2017-Apr-30 17:50N 19°30' W 074°30'8 8.4 040 / 111014.9 27.4 28.1
2017-Apr-30 16:51N 19°36' W 074°24'1312.8 050 / 121015.5 26.9 28.0
2017-Apr-30 15:51N 19°42' W 074°12'1313.5 060 / 151016.3 26.3 27.0
2017-Apr-30 14:52N 19°54' W 074°06'1313.5 060 / 151016.6 26.3 25.9
2017-Apr-30 13:53N 20°06' W 074°00'1212.2 070 / 171016.0 26.1 25.9
2017-Apr-30 12:54N 20°18' W 074°00'8 9.1 060 / 151015.4 26.2 25.9
2017-Apr-30 12:00N 20°24' W 074°06'0 0.0 070 / 191014.610.8 26.122.825.9
2017-Apr-30 11:54N 20°24' W 074°06'1313.0 070 / 201014.7 26.1 25.9
2017-Apr-30 10:55N 20°30' W 074°18'1313.0 060 / 221014.4 25.9 25.9
2017-Apr-30 09:56N 20°36' W 074°30'8 8.4 080 / 211013.6 25.8 25.8
2017-Apr-30 08:57N 20°42' W 074°36'1312.9 080 / 211013.4 25.5 25.9
2017-Apr-30 07:58N 20°48' W 074°48'1111.2 080 / 231013.3 25.7 26.0
2017-Apr-30 06:58N 20°48' W 075°00'8 8.5 080 / 221013.1 25.7 26.0
2017-Apr-30 06:00N 20°54' W 075°06'0 0.0 090 / 251013.5 5.4 25.122.626.0
2017-Apr-30 05:59N 20°54' W 075°06'1312.9 080 / 241013.5 25.9 26.1
2017-Apr-30 05:00N 21°00' W 075°18'1310.9 080 / 241014.0 26.0 26.0
2017-Apr-30 03:50N 21°06' W 075°30'8 8.3 070 / 241014.3 26.0 26.0
2017-Apr-30 02:51N 21°12' W 075°36'1111.4 070 / 241014.1 26.0 25.9
2017-Apr-30 01:52N 21°12' W 075°48'1312.9 070 / 241013.8 25.9 25.9
2017-Apr-30 00:53N 21°18' W 076°00'8 9.3 070 / 251013.7 25.9 26.1
2017-Apr-30 00:00N 21°24' W 076°06'1816.2 070 / 241013.7 5.4 25.925.326.1
2017-Apr-29 22:54N 21°30' W 076°24'6 5.7 060 / 271013.4 26.0 26.1
2017-Apr-29 21:55N 21°30' W 076°30'1312.9 070 / 251013.5 26.1 26.3
2017-Apr-29 20:56N 21°36' W 076°42'1312.9 070 / 251013.9 26.1 26.2
2017-Apr-29 19:57N 21°42' W 076°54'8 8.2 070 / 231014.4 26.1 26.3
2017-Apr-29 18:57N 21°48' W 077°00'1313.3 070 / 271014.9 26.1 26.3
2017-Apr-29 18:00N 21°54' W 077°12'0 0.0 080 / 241015.4 5.4 26.123.226.3
2017-Apr-29 17:58N 21°54' W 077°12'8 8.3 080 / 231015.4 26.2 26.3
2017-Apr-29 16:59N 22°00' W 077°18'1312.9 080 / 211016.4 26.0 26.3
2017-Apr-29 16:00N 22°06' W 077°30'1614.0 080 / 251016.9 25.8 26.1
2017-Apr-29 14:50N 22°18' W 077°42'1312.8 090 / 211017.9 26.2 26.2
2017-Apr-29 13:51N 22°24' W 077°54'8 8.3 100 / 191018.6 26.6 26.3
2017-Apr-29 12:52N 22°30' W 078°00'1314.5 070 / 201017.9 26.4 26.5
2017-Apr-29 12:00N 22°36' W 078°12'0 0.0 070 / 131016.8 5.4 26.322.726.5
2017-Apr-29 11:52N 22°36' W 078°12'1312.8 080 / 221016.8 26.3 26.5
2017-Apr-29 10:53N 22°42' W 078°24'1111.3 080 / 181016.5 26.1 26.5
2017-Apr-29 09:54N 22°42' W 078°36'1312.8 080 / 231015.8 26.1 26.4
2017-Apr-29 08:55N 22°48' W 078°48'1313.2 080 / 271015.2 26.2 26.8
2017-Apr-29 07:55N 23°00' W 078°54'1313.4 090 / 281015.3 26.4 27.0
2017-Apr-29 06:56N 23°12' W 079°00'8 8.7 090 / 291015.1 26.5 27.1
2017-Apr-29 06:00N 23°18' W 079°06'0 0.0 110 / 241015.7 5.4 25.823.327.0
2017-Apr-29 05:57N 23°18' W 079°06'1313.4 090 / 271015.7 26.7 27.1
2017-Apr-29 04:58N 23°30' W 079°12'8 8.3 100 / 261016.4 26.9 27.1
2017-Apr-29 03:59N 23°36' W 079°18'1212.2 090 / 261017.1 27.0 27.1
2017-Apr-29 03:00N 23°48' W 079°18'1210.3 090 / 291016.4 26.9 27.1
2017-Apr-29 01:50N 24°00' W 079°18'1212.2 090 / 281016.3 27.0 27.2
2017-Apr-29 00:51N 24°12' W 079°18'19 9.5 090 / 241016.1 27.2 27.2
2017-Apr-28 22:52N 24°30' W 079°24'1212.2 110 / 171016.1 27.0 27.1
2017-Apr-28 21:53N 24°42' W 079°24'1212.2 100 / 161015.8 27.1 27.4
2017-Apr-28 20:54N 24°54' W 079°24'6 6.1 110 / 141016.5 27.1 27.2
2017-Apr-28 19:55N 25°00' W 079°24'1212.2 110 / 131016.9 27.1 27.2
2017-Apr-28 18:56N 25°12' W 079°24'8 8.1 070 / 141016.9 26.5 27.1
2017-Apr-28 17:56N 25°18' W 079°30'6 6.1 080 / 171017.8 26.3 27.0
2017-Apr-28 16:57N 25°24' W 079°30'1212.2 090 / 161018.6 26.2 26.9
2017-Apr-28 15:58N 25°36' W 079°30'1212.2 100 / 191018.7 26.2 27.0
2017-Apr-28 14:59N 25°48' W 079°30'6 6.1 110 / 171019.4 26.0 26.2
2017-Apr-28 14:00N 25°54' W 079°30'1211.4 110 / 171019.0 26.0 26.4
2017-Apr-28 12:57N 26°06' W 079°30'1212.6 130 / 121017.9 26.0 26.7
2017-Apr-28 12:00N 26°18' W 079°30'0 0.0 170 / 131017.110.8 26.022.226.9
2017-Apr-28 11:58N 26°18' W 079°30'1212.2 150 / 111017.2 26.0 26.9
2017-Apr-28 10:59N 26°30' W 079°30'6 6.0 160 / 141015.4 25.8 27.0
2017-Apr-28 09:59N 26°36' W 079°30'1212.2 150 / 121014.4 25.7 27.0
2017-Apr-28 09:00N 26°48' W 079°30'8 7.0 150 / 191014.2 25.6 27.0
2017-Apr-28 07:51N 26°54' W 079°36'1313.4 160 / 171014.3 25.8 27.1
2017-Apr-28 06:52N 27°06' W 079°42'6 6.9 160 / 211014.3 25.7 27.1
2017-Apr-28 06:00N 27°12' W 079°42'0 0.0 150 / 181014.0 5.4 26.925.326.9
2017-Apr-28 05:52N 27°12' W 079°42'8 8.2 150 / 191014.1 26.1 27.0
2017-Apr-28 04:53N 27°18' W 079°48'8 8.2 160 / 191014.3 26.0 27.0
2017-Apr-28 03:54N 27°24' W 079°54'1212.2 150 / 181014.3 26.3 27.0
2017-Apr-28 02:55N 27°36' W 079°54'8 8.2 170 / 181014.4 26.6 26.8
2017-Apr-28 01:56N 27°42' W 080°00'1212.0 170 / 181013.6 26.4 25.8
2017-Apr-28 00:56N 27°54' W 080°00'6 6.4 160 / 151013.1 26.3 25.7
2017-Apr-28 00:00N 28°00' W 080°00'1211.6 160 / 131013.0 5.4 26.124.325.8
2017-Apr-27 22:58N 28°12' W 080°00'6 6.1 160 / 181012.8 26.1 25.3
2017-Apr-27 21:59N 28°18' W 080°00'1212.2 160 / 161012.8 26.1 26.1
2017-Apr-27 21:00N 28°30' W 080°00'24 8.0 170 / 171012.9 26.1 26.7
2017-Apr-27 18:00N 28°54' W 080°00'8311.3 170 / 111014.910.8 25.522.025.8
2017-Apr-27 10:36N 30°16' W 080°15'111.3
2017-Apr-27 10:30N 30°18' W 080°14'11310.8
2017-Apr-27 00:00N 32°06' W 079°36'   180 / 181009.410.8 22.516.9

Dump ship's entire track history